createdAt,value
2024-02-02T00:01:07.421Z,84.28
2024-02-02T00:03:31.380Z,84.45
2024-02-02T00:05:55.162Z,84.05
2024-02-02T00:08:19.073Z,84.42
2024-02-02T00:10:44.529Z,82.77
2024-02-02T00:13:08.535Z,83.67
2024-02-02T00:15:32.596Z,84.23
2024-02-02T00:17:56.634Z,83.91
2024-02-02T00:20:20.563Z,83.89
2024-02-02T00:22:44.370Z,84.43
2024-02-02T00:25:09.108Z,83.95
2024-02-02T00:27:34.339Z,83.79
2024-02-02T00:29:58.161Z,83.10
2024-02-02T00:32:21.951Z,84.96
2024-02-02T00:34:45.775Z,84.79
2024-02-02T00:37:10.067Z,85.25
2024-02-02T00:39:33.902Z,84.69
2024-02-02T00:41:57.750Z,83.71
2024-02-02T00:44:22.833Z,85.36
2024-02-02T00:46:46.917Z,85.19
2024-02-02T00:49:10.709Z,85.10
2024-02-02T00:51:34.606Z,84.63
2024-02-02T00:53:58.475Z,85.48
2024-02-02T00:56:22.335Z,85.17
2024-02-02T00:58:46.052Z,86.22
2024-02-02T01:01:11.285Z,86.04
2024-02-02T01:03:38.742Z,86.48
2024-02-02T01:06:02.858Z,87.95
2024-02-02T01:08:27.261Z,87.83
2024-02-02T01:10:51.192Z,87.71
2024-02-02T01:13:15.285Z,87.75
2024-02-02T01:15:39.384Z,88.18
2024-02-02T01:18:08.753Z,87.31
2024-02-02T01:20:32.723Z,87.91
2024-02-02T01:22:56.406Z,88.84
2024-02-02T01:25:20.853Z,87.85
2024-02-02T01:27:45.489Z,87.70
2024-02-02T01:30:13.004Z,88.38
2024-02-02T01:32:37.286Z,87.06
2024-02-02T01:35:02.612Z,87.21
2024-02-02T01:37:26.473Z,88.70
2024-02-02T01:39:50.224Z,87.53
2024-02-02T01:42:14.433Z,88.16
2024-02-02T01:47:02.133Z,87.80
2024-02-02T01:49:26.215Z,87.73
2024-02-02T01:51:51.395Z,87.33
2024-02-02T01:54:15.422Z,87.37
2024-02-02T01:56:39.902Z,86.99
2024-02-02T01:59:04.694Z,87.39
2024-02-02T02:01:29.651Z,88.28
2024-02-02T02:03:54.117Z,87.57
2024-02-02T02:06:18.249Z,87.74
2024-02-02T02:08:43.562Z,87.45
2024-02-02T02:11:08.817Z,87.60
2024-02-02T02:13:33.067Z,86.13
2024-02-02T02:15:56.946Z,87.19
2024-02-02T02:18:20.935Z,86.46
2024-02-02T02:20:45.608Z,86.11
2024-02-02T02:23:12.763Z,86.32
2024-02-02T02:25:36.488Z,86.21
2024-02-02T02:28:00.272Z,85.95
2024-02-02T02:30:24.149Z,86.36
2024-02-02T02:32:48.075Z,85.67
2024-02-02T02:35:12.273Z,84.76
2024-02-02T02:37:36.063Z,85.51
2024-02-02T02:40:01.220Z,86.02
2024-02-02T02:42:25.116Z,86.54
2024-02-02T02:44:48.919Z,86.39
2024-02-02T02:47:12.891Z,86.27
2024-02-02T02:49:36.769Z,86.13
2024-02-02T02:52:01.061Z,86.45
2024-02-02T02:54:25.202Z,85.81
2024-02-02T02:56:50.535Z,85.88
2024-02-02T02:59:17.739Z,86.01
2024-02-02T03:01:41.513Z,85.44
2024-02-02T03:04:05.678Z,84.63
2024-02-02T03:06:29.583Z,86.29
2024-02-02T03:08:53.416Z,86.67
2024-02-02T03:11:17.406Z,86.18
2024-02-02T03:13:42.770Z,85.71
2024-02-02T03:16:08.053Z,85.89
2024-02-02T03:18:31.889Z,86.38
2024-02-02T03:20:55.870Z,87.29
2024-02-02T03:23:19.636Z,86.42
2024-02-02T03:25:43.523Z,86.61
2024-02-02T03:28:07.607Z,85.80
2024-02-02T03:30:32.958Z,85.45
2024-02-02T03:32:56.919Z,86.45
2024-02-02T03:35:20.775Z,86.19
2024-02-02T03:37:44.464Z,86.06
2024-02-02T03:40:10.300Z,86.98
2024-02-02T03:42:34.133Z,86.15
2024-02-02T03:44:58.912Z,86.17
2024-02-02T03:47:25.359Z,86.20
2024-02-02T03:49:49.218Z,87.00
2024-02-02T03:52:13.052Z,86.51
2024-02-02T03:54:37.281Z,86.18
2024-02-02T03:57:02.746Z,85.67
2024-02-02T03:59:26.650Z,86.15
2024-02-02T04:01:50.455Z,85.95
2024-02-02T04:04:15.954Z,86.18
2024-02-02T04:06:39.921Z,86.32
2024-02-02T04:09:04.162Z,85.78
2024-02-02T04:11:28.107Z,86.16
2024-02-02T04:13:51.956Z,87.72
2024-02-02T04:16:15.675Z,86.58
2024-02-02T04:18:39.603Z,86.68
2024-02-02T04:21:05.128Z,87.11
2024-02-02T04:23:30.636Z,86.86
2024-02-02T04:25:54.470Z,86.51
2024-02-02T04:28:18.280Z,87.34
2024-02-02T04:30:42.052Z,87.42
2024-02-02T04:33:07.752Z,87.01
2024-02-02T04:35:35.864Z,86.54
2024-02-02T04:38:01.352Z,85.71
2024-02-02T04:40:25.519Z,86.79
2024-02-02T04:42:49.410Z,86.82
2024-02-02T04:45:13.327Z,87.31
2024-02-02T04:47:37.208Z,87.22
2024-02-02T04:50:00.953Z,87.49
2024-02-02T04:52:24.794Z,87.43
2024-02-02T04:54:50.217Z,87.08
2024-02-02T04:57:14.161Z,86.66
2024-02-02T04:59:37.973Z,86.19
2024-02-02T05:02:05.818Z,86.33
2024-02-02T05:04:30.237Z,87.58
2024-02-02T05:06:54.025Z,87.40
2024-02-02T05:09:17.801Z,86.76
2024-02-02T05:11:42.939Z,86.60
2024-02-02T05:14:06.618Z,86.58
2024-02-02T05:16:30.364Z,86.82
2024-02-02T05:18:54.165Z,86.08
2024-02-02T05:21:18.006Z,86.06
2024-02-02T05:23:48.584Z,86.18
2024-02-02T05:26:13.498Z,86.81
2024-02-02T05:28:38.620Z,86.78
2024-02-02T05:31:02.587Z,86.93
2024-02-02T05:33:26.451Z,87.02
2024-02-02T05:35:50.501Z,86.71
2024-02-02T05:38:14.389Z,86.48
2024-02-02T05:40:38.131Z,86.24
2024-02-02T05:43:02.384Z,85.44
2024-02-02T05:45:27.716Z,84.67
2024-02-02T05:47:51.622Z,86.38
2024-02-02T05:50:15.622Z,86.13
2024-02-02T05:52:39.365Z,85.64
2024-02-02T05:55:03.318Z,86.10
2024-02-02T05:57:27.181Z,84.99
2024-02-02T05:59:51.581Z,85.19
2024-02-02T06:02:16.721Z,86.13
2024-02-02T06:04:40.508Z,85.89
2024-02-02T06:07:04.540Z,84.91
2024-02-02T06:09:28.551Z,85.61
2024-02-02T06:11:52.378Z,86.51
2024-02-02T06:14:16.185Z,87.02
2024-02-02T06:16:39.872Z,86.20
2024-02-02T06:19:05.182Z,86.01
2024-02-02T06:21:29.008Z,86.00
2024-02-02T06:23:52.858Z,85.81
2024-02-02T06:26:16.646Z,87.55
2024-02-02T06:28:40.429Z,86.11
2024-02-02T06:31:04.171Z,86.15
2024-02-02T06:33:28.416Z,86.71
2024-02-02T06:35:53.686Z,85.26
2024-02-02T06:38:17.634Z,86.93
2024-02-02T06:40:41.439Z,86.20
2024-02-02T06:43:05.519Z,85.45
2024-02-02T06:45:29.390Z,87.10
2024-02-02T06:47:53.596Z,85.75
2024-02-02T06:50:17.484Z,85.17
2024-02-02T06:52:42.855Z,86.45
2024-02-02T06:55:07.224Z,85.94
2024-02-02T06:57:33.037Z,85.07
2024-02-02T06:59:59.141Z,84.55
2024-02-02T07:02:25.729Z,85.29
2024-02-02T07:04:50.856Z,84.80
2024-02-02T07:07:15.122Z,86.51
2024-02-02T07:09:41.021Z,86.38
2024-02-02T07:12:08.246Z,85.51
2024-02-02T07:14:48.995Z,86.78
2024-02-02T07:17:36.140Z,85.59
2024-02-02T07:20:00.181Z,86.04
2024-02-02T07:22:35.663Z,85.75
2024-02-02T07:25:00.948Z,86.18
2024-02-02T07:27:48.938Z,86.45
2024-02-02T07:30:15.850Z,85.20
2024-02-02T07:32:39.727Z,85.56
2024-02-02T07:35:05.338Z,85.90
2024-02-02T07:37:49.241Z,86.60
2024-02-02T07:41:01.076Z,86.36
2024-02-02T07:43:25.150Z,85.84
2024-02-02T07:45:49.263Z,85.07
2024-02-02T07:48:13.584Z,86.12
2024-02-02T07:50:37.562Z,84.96
2024-02-02T07:53:01.722Z,85.21
2024-02-02T07:55:27.863Z,84.95
2024-02-02T07:57:51.700Z,85.74
2024-02-02T08:00:17.348Z,84.75
2024-02-02T08:02:41.395Z,84.61
2024-02-02T08:05:09.453Z,85.67
2024-02-02T08:07:33.416Z,85.12
2024-02-02T08:09:57.136Z,83.81
2024-02-02T08:12:22.569Z,83.42
2024-02-02T08:14:46.291Z,84.69
2024-02-02T08:17:11.078Z,84.52
2024-02-02T08:19:37.840Z,83.90
2024-02-02T08:22:02.596Z,83.26
2024-02-02T08:24:26.349Z,82.85
2024-02-02T08:26:50.223Z,83.53
2024-02-02T08:29:17.999Z,82.29
2024-02-02T08:31:45.946Z,83.14
2024-02-02T08:34:09.865Z,83.21
2024-02-02T08:36:33.709Z,82.87
2024-02-02T08:38:57.886Z,82.12
2024-02-02T08:41:21.860Z,82.84
2024-02-02T08:43:46.651Z,81.44
2024-02-02T08:46:12.216Z,81.70
2024-02-02T08:48:41.826Z,80.49
2024-02-02T08:51:48.412Z,80.72
2024-02-02T08:54:39.287Z,79.89
2024-02-02T08:57:33.065Z,79.30
2024-02-02T08:59:56.986Z,80.01
2024-02-02T09:02:52.536Z,79.21
2024-02-02T09:05:24.093Z,79.37
2024-02-02T09:07:54.120Z,78.80
2024-02-02T09:11:22.919Z,79.25
2024-02-02T09:13:47.045Z,79.43
2024-02-02T09:16:10.957Z,78.76
2024-02-02T09:18:39.952Z,79.51
2024-02-02T09:21:05.772Z,79.77
2024-02-02T09:23:30.406Z,80.10
2024-02-02T09:25:54.224Z,81.49
2024-02-02T09:28:43.156Z,81.48
2024-02-02T09:31:08.741Z,81.54
2024-02-02T09:33:48.150Z,81.57
2024-02-02T09:36:13.516Z,83.75
2024-02-02T09:38:38.227Z,82.77
2024-02-02T09:41:39.688Z,81.88
2024-02-02T09:44:19.129Z,82.69
2024-02-02T09:46:50.199Z,82.66
2024-02-02T09:49:29.161Z,83.14
2024-02-02T09:52:04.338Z,83.21
2024-02-02T09:54:39.067Z,83.12
2024-02-02T09:57:14.684Z,82.40
2024-02-02T09:59:52.749Z,82.65
2024-02-02T10:02:45.883Z,83.10
2024-02-02T10:05:21.342Z,83.53
2024-02-02T10:08:00.843Z,82.39
2024-02-02T10:10:46.706Z,81.84
2024-02-02T10:13:23.212Z,82.12
2024-02-02T10:16:15.172Z,81.12
2024-02-02T10:19:21.132Z,80.64
2024-02-02T10:22:00.857Z,80.07
2024-02-02T10:24:46.438Z,81.13
2024-02-02T10:27:34.743Z,79.71
2024-02-02T10:30:09.621Z,79.80
2024-02-02T10:33:04.097Z,79.14
2024-02-02T10:35:45.429Z,79.37
2024-02-02T10:38:24.751Z,79.25
2024-02-02T10:40:59.302Z,78.40
2024-02-02T10:43:34.846Z,77.82
2024-02-02T10:46:16.570Z,78.43
2024-02-02T10:49:05.857Z,78.30
2024-02-02T10:51:37.956Z,76.50
2024-02-02T10:54:21.704Z,76.33
2024-02-02T10:57:09.068Z,76.29
2024-02-02T10:59:45.431Z,75.98
2024-02-02T11:02:21.322Z,76.65
2024-02-02T11:04:58.402Z,74.93
2024-02-02T11:07:29.331Z,74.92
2024-02-02T11:10:02.234Z,75.56
2024-02-02T11:12:38.334Z,74.77
2024-02-02T11:15:22.614Z,74.12
2024-02-02T11:17:59.278Z,74.43
2024-02-02T11:20:36.117Z,74.36
2024-02-02T11:23:06.235Z,73.65
2024-02-02T11:25:40.472Z,73.28
2024-02-02T11:28:16.850Z,75.15
2024-02-02T11:30:59.737Z,74.24
2024-02-02T11:33:51.536Z,74.12
2024-02-02T11:36:30.718Z,73.83
2024-02-02T11:39:11.906Z,73.40
2024-02-02T11:41:40.376Z,72.51
2024-02-02T11:44:05.567Z,72.32
2024-02-02T11:46:31.500Z,71.84
2024-02-02T11:49:08.677Z,73.07
2024-02-02T11:51:33.126Z,72.52
2024-02-02T11:54:04.459Z,70.95
2024-02-02T11:56:37.088Z,72.46
2024-02-02T11:59:07.591Z,71.75
2024-02-02T12:01:48.860Z,71.75
2024-02-02T12:04:30.865Z,71.26
2024-02-02T12:07:19.279Z,70.76
2024-02-02T12:09:48.778Z,71.19
2024-02-02T12:12:19.623Z,71.22
2024-02-02T12:14:52.124Z,70.68
2024-02-02T12:17:16.442Z,71.64
2024-02-02T12:19:40.342Z,70.92
2024-02-02T12:22:04.212Z,70.39
2024-02-02T12:24:30.025Z,70.10
2024-02-02T12:26:53.927Z,70.79
2024-02-02T12:29:19.470Z,70.26
2024-02-02T12:31:43.499Z,70.24
2024-02-02T12:34:08.045Z,71.27
2024-02-02T12:36:32.011Z,71.17
2024-02-02T12:39:00.095Z,71.91
2024-02-02T12:41:23.900Z,72.74
2024-02-02T12:43:49.188Z,72.45
2024-02-02T12:46:14.995Z,72.99
2024-02-02T12:48:38.837Z,72.77
2024-02-02T12:51:02.792Z,72.85
2024-02-02T12:53:26.607Z,72.57
2024-02-02T12:55:50.494Z,73.43
2024-02-02T12:58:14.272Z,72.50
2024-02-02T13:00:38.255Z,73.85
2024-02-02T13:03:06.362Z,73.34
2024-02-02T13:05:30.315Z,73.74
2024-02-02T13:07:54.052Z,74.99
2024-02-02T13:10:35.979Z,74.34
2024-02-02T13:12:59.738Z,72.94
2024-02-02T13:15:23.520Z,72.48
2024-02-02T13:18:04.113Z,73.32
2024-02-02T13:20:34.317Z,73.13
2024-02-02T13:23:07.094Z,71.86
2024-02-02T13:25:33.015Z,72.67
2024-02-02T13:27:57.092Z,73.08
2024-02-02T13:30:27.970Z,72.41
2024-02-02T13:32:53.602Z,72.10
2024-02-02T13:35:24.272Z,72.26
2024-02-02T13:37:51.754Z,73.02
2024-02-02T13:40:16.417Z,72.30
2024-02-02T13:42:41.548Z,72.21
2024-02-02T13:45:16.416Z,72.05
2024-02-02T13:47:41.108Z,72.11
2024-02-02T13:50:07.715Z,71.58
2024-02-02T13:52:32.936Z,71.12
2024-02-02T13:54:56.917Z,72.48
2024-02-02T13:57:21.172Z,72.32
2024-02-02T13:59:44.304Z,72.20
2024-02-02T14:02:08.866Z,72.75
2024-02-02T14:04:32.681Z,72.28
2024-02-02T14:06:56.596Z,72.11
2024-02-02T14:09:24.262Z,72.95
2024-02-02T14:11:48.122Z,72.76
2024-02-02T14:14:11.865Z,72.61
2024-02-02T14:16:35.630Z,72.49
2024-02-02T14:19:03.145Z,71.54
2024-02-02T14:21:31.323Z,71.67
2024-02-02T14:23:55.129Z,72.37
2024-02-02T14:26:20.337Z,72.16
2024-02-02T14:28:44.039Z,73.39
2024-02-02T14:31:08.056Z,72.16
2024-02-02T14:33:32.136Z,72.36
2024-02-02T14:35:56.554Z,72.17
2024-02-02T14:38:20.283Z,72.66
2024-02-02T14:40:44.171Z,72.89
2024-02-02T14:43:09.394Z,73.05
2024-02-02T14:45:34.701Z,72.88
2024-02-02T14:47:58.951Z,73.27
2024-02-02T14:50:25.188Z,73.12
2024-02-02T14:52:49.063Z,73.33
2024-02-02T14:55:13.349Z,73.26
2024-02-02T14:57:37.118Z,73.28
2024-02-02T15:00:11.169Z,73.40
2024-02-02T15:02:34.991Z,73.24
2024-02-02T15:05:02.355Z,74.84
2024-02-02T15:07:27.383Z,75.02
2024-02-02T15:09:52.090Z,74.64
2024-02-02T15:12:15.990Z,74.71
2024-02-02T15:14:39.830Z,75.17
2024-02-02T15:17:05.584Z,75.75
2024-02-02T15:19:29.617Z,74.62
2024-02-02T15:21:53.906Z,74.68
2024-02-02T15:24:17.830Z,74.40
2024-02-02T15:26:42.145Z,76.00
2024-02-02T15:29:05.864Z,75.39
2024-02-02T15:31:29.650Z,76.28
2024-02-02T15:33:54.888Z,75.73
2024-02-02T15:36:18.816Z,74.91
2024-02-02T15:38:59.970Z,74.27
2024-02-02T15:41:27.563Z,75.61
2024-02-02T15:43:51.255Z,74.43
2024-02-02T15:46:15.965Z,74.09
2024-02-02T15:48:39.807Z,73.73
2024-02-02T15:51:06.168Z,74.34
2024-02-02T15:53:30.068Z,74.79
2024-02-02T15:55:54.184Z,74.48
2024-02-02T15:58:18.000Z,75.03
2024-02-02T16:00:41.980Z,75.24
2024-02-02T16:03:06.432Z,74.65
2024-02-02T16:05:30.607Z,74.63
2024-02-02T16:07:55.701Z,74.07
2024-02-02T16:10:19.728Z,74.83
2024-02-02T16:12:43.573Z,75.00
2024-02-02T16:15:09.810Z,75.36
2024-02-02T16:17:34.252Z,76.57
2024-02-02T16:19:58.164Z,76.84
2024-02-02T16:22:22.858Z,77.68
2024-02-02T16:24:48.298Z,78.71
2024-02-02T16:27:12.157Z,77.42
2024-02-02T16:29:38.054Z,78.03
2024-02-02T16:32:02.195Z,78.29
2024-02-02T16:34:26.111Z,78.65
2024-02-02T16:36:50.081Z,79.39
2024-02-02T16:39:15.169Z,80.78
2024-02-02T16:41:40.815Z,80.57
2024-02-02T16:44:04.726Z,81.01
2024-02-02T16:46:28.425Z,81.48
2024-02-02T16:48:52.331Z,81.21
2024-02-02T16:51:19.332Z,82.09
2024-02-02T16:53:43.841Z,83.64
2024-02-02T16:56:08.242Z,81.95
2024-02-02T16:58:33.484Z,83.23
2024-02-02T17:00:59.439Z,84.31
2024-02-02T17:03:24.728Z,85.95
2024-02-02T17:05:48.601Z,85.27
2024-02-02T17:08:12.372Z,87.13
2024-02-02T17:10:36.472Z,87.72
2024-02-02T17:13:00.497Z,89.07
2024-02-02T17:15:25.903Z,89.22
2024-02-02T17:17:49.862Z,88.73
2024-02-02T17:20:16.076Z,91.07
2024-02-02T17:22:44.375Z,91.89
2024-02-02T17:25:09.159Z,92.31
2024-02-02T17:27:33.064Z,92.52
2024-02-02T17:29:56.861Z,93.37
2024-02-02T17:32:23.680Z,94.54
2024-02-02T17:34:49.851Z,96.56
2024-02-02T17:37:13.947Z,97.22
2024-02-02T17:39:41.044Z,96.85
2024-02-02T17:42:05.378Z,97.17
2024-02-02T17:44:29.329Z,97.34
2024-02-02T17:46:53.747Z,97.90
2024-02-02T17:49:19.074Z,98.03
2024-02-02T17:51:43.013Z,97.82
2024-02-02T17:54:07.298Z,97.41
2024-02-02T17:56:31.198Z,97.48
2024-02-02T17:58:56.727Z,97.11
2024-02-02T18:01:20.733Z,96.67
2024-02-02T18:03:44.530Z,95.32
2024-02-02T18:06:10.212Z,96.15
2024-02-02T18:08:33.985Z,94.63
2024-02-02T18:10:57.770Z,94.56
2024-02-02T18:13:21.722Z,94.26
2024-02-02T18:15:45.590Z,94.28
2024-02-02T18:18:09.721Z,95.55
2024-02-02T18:20:33.598Z,94.16
2024-02-02T18:22:58.897Z,93.36
2024-02-02T18:25:26.793Z,93.70
2024-02-02T18:27:50.897Z,93.89
2024-02-02T18:30:15.983Z,93.24
2024-02-02T18:32:39.790Z,93.67
2024-02-02T18:35:03.678Z,93.77
2024-02-02T18:37:27.718Z,94.08
2024-02-02T18:39:53.213Z,93.48
2024-02-02T18:42:16.987Z,93.22
2024-02-02T18:44:40.737Z,93.12
2024-02-02T18:47:05.146Z,93.20
2024-02-02T18:49:29.028Z,92.47
2024-02-02T18:51:52.929Z,92.15
2024-02-02T18:54:16.902Z,93.00
2024-02-02T18:56:42.495Z,94.22
2024-02-02T18:59:07.248Z,93.93
2024-02-02T19:01:33.639Z,94.24
2024-02-02T19:03:57.733Z,94.56
2024-02-02T19:06:21.961Z,95.82
2024-02-02T19:08:45.864Z,95.76
2024-02-02T19:11:14.462Z,95.34
2024-02-02T19:13:39.656Z,95.03
2024-02-02T19:16:03.695Z,95.06
2024-02-02T19:18:27.940Z,94.79
2024-02-02T19:20:51.743Z,94.95
2024-02-02T19:23:15.617Z,95.79
2024-02-02T19:25:39.319Z,95.93
2024-02-02T19:28:03.073Z,96.35
2024-02-02T19:30:28.551Z,95.32
2024-02-02T19:32:53.085Z,95.47
2024-02-02T19:35:17.063Z,94.90
2024-02-02T19:37:40.891Z,93.91
2024-02-02T19:40:04.888Z,93.88
2024-02-02T19:42:28.748Z,92.89
2024-02-02T19:44:52.460Z,93.36
2024-02-02T19:47:19.093Z,93.49
2024-02-02T19:49:43.097Z,93.66
2024-02-02T19:52:07.549Z,93.28
2024-02-02T19:54:32.317Z,93.31
2024-02-02T19:56:56.107Z,92.79
2024-02-02T19:59:19.793Z,93.46
2024-02-02T20:01:48.352Z,93.66
2024-02-02T20:04:13.627Z,93.50
2024-02-02T20:06:37.712Z,93.65
2024-02-02T20:09:01.447Z,92.92
2024-02-02T20:11:27.075Z,91.97
2024-02-02T20:13:51.050Z,92.73
2024-02-02T20:16:17.475Z,92.71
2024-02-02T20:18:41.605Z,92.71
2024-02-02T20:21:07.770Z,93.55
2024-02-02T20:23:31.778Z,93.63
2024-02-02T20:25:55.720Z,94.13
2024-02-02T20:28:19.617Z,94.71
2024-02-02T20:30:43.620Z,95.59
2024-02-02T20:33:07.598Z,96.36
2024-02-02T20:35:32.804Z,95.96
2024-02-02T20:37:58.675Z,97.05
2024-02-02T20:40:22.489Z,97.09
2024-02-02T20:42:46.221Z,98.38
2024-02-02T20:45:10.625Z,97.76
2024-02-02T20:47:34.416Z,98.13
2024-02-02T20:49:58.345Z,99.68
2024-02-02T20:52:22.974Z,99.48
2024-02-02T20:54:48.364Z,99.01
2024-02-02T20:57:12.389Z,98.37
2024-02-02T20:59:36.234Z,99.47
2024-02-02T21:01:59.929Z,98.23
2024-02-02T21:04:23.829Z,100.00
2024-02-02T21:06:47.779Z,99.39
2024-02-02T21:09:11.841Z,98.78
2024-02-02T21:11:37.107Z,99.47
2024-02-02T21:14:00.843Z,99.43
2024-02-02T21:16:24.859Z,99.77
2024-02-02T21:18:51.145Z,98.59
2024-02-02T21:21:22.196Z,99.33
2024-02-02T21:23:48.299Z,99.18
2024-02-02T21:26:11.980Z,98.17
2024-02-02T21:28:38.591Z,97.81
2024-02-02T21:31:02.410Z,97.37
2024-02-02T21:33:26.465Z,97.20
2024-02-02T21:35:50.281Z,98.02
2024-02-02T21:38:14.165Z,97.62
2024-02-02T21:40:38.376Z,97.37
2024-02-02T21:43:02.231Z,97.88
2024-02-02T21:45:28.762Z,98.47
2024-02-02T21:47:52.685Z,98.15
2024-02-02T21:50:16.897Z,99.00
2024-02-02T21:52:42.389Z,100.00
2024-02-02T21:55:06.644Z,100.00
2024-02-02T21:57:30.464Z,100.00
2024-02-02T21:59:54.174Z,100.00
2024-02-02T22:02:19.823Z,100.00
2024-02-02T22:04:43.541Z,100.00
2024-02-02T22:07:07.406Z,100.00
2024-02-02T22:09:31.298Z,100.00
2024-02-02T22:11:55.150Z,100.00
2024-02-02T22:14:18.844Z,100.00
2024-02-02T22:16:42.681Z,100.00
2024-02-02T22:19:07.876Z,100.00
2024-02-02T22:21:31.883Z,100.00
2024-02-02T22:23:55.685Z,100.00
2024-02-02T22:26:20.852Z,100.00
2024-02-02T22:28:44.580Z,100.00
2024-02-02T22:31:08.463Z,100.00
2024-02-02T22:33:33.443Z,100.00
2024-02-02T22:35:59.358Z,100.00
2024-02-02T22:38:23.130Z,100.00
2024-02-02T22:40:46.905Z,100.00
2024-02-02T22:43:10.728Z,100.00
2024-02-02T22:45:34.478Z,100.00
2024-02-02T22:47:58.277Z,100.00
2024-02-02T22:50:22.120Z,100.00
2024-02-02T22:52:47.339Z,100.00
2024-02-02T22:55:11.397Z,100.00
2024-02-02T22:57:35.176Z,100.00
2024-02-02T23:00:02.624Z,100.00
2024-02-02T23:02:29.729Z,100.00
2024-02-02T23:04:53.475Z,100.00
2024-02-02T23:07:17.544Z,100.00
2024-02-02T23:09:43.048Z,100.00
2024-02-02T23:12:08.054Z,100.00
2024-02-02T23:14:31.931Z,100.00
2024-02-02T23:16:55.879Z,100.00
2024-02-02T23:19:19.967Z,100.00
2024-02-02T23:21:43.807Z,100.00
2024-02-02T23:24:08.552Z,100.00
2024-02-02T23:26:33.748Z,100.00
2024-02-02T23:28:57.504Z,100.00
2024-02-02T23:31:21.301Z,100.00
2024-02-02T23:33:45.149Z,100.00
2024-02-02T23:36:10.115Z,100.00
2024-02-02T23:38:33.870Z,100.00
2024-02-02T23:40:57.979Z,100.00
2024-02-02T23:43:22.059Z,100.00
2024-02-02T23:45:45.954Z,100.00
2024-02-02T23:48:09.952Z,100.00
2024-02-02T23:50:33.767Z,100.00
2024-02-02T23:52:57.651Z,100.00
2024-02-02T23:55:21.451Z,100.00
2024-02-02T23:57:45.525Z,100.00
